Flight Track Log - Related Links

Times and Time Zones

All times are in EDT time to prevent confusion due to time zone crossing. See the EJA929 flight status page for this flight to view local times or setup timezone preferences in your user account.

Time Position Orientation Groundspeed Altitude Reporting Facility
EDT Latitude Longitude Course Direction KTS km/h feet Rate Location/Type
Fri 15:41:11 25.8017 -80.3069 287° West 186 344 900  Level Miami Center
Fri 15:42:06 25.8169 -80.3628 287° West 219 406 5.200 3.495 Climbing Miami Center
Fri 15:42:54 25.8386 -80.4211 292° West 257 476 6.900 1.778 Climbing Miami Center
Fri 15:43:54 25.9022 -80.4667 327° Northwest 286 529 8.400 1.550 Climbing Miami Center
Fri 15:44:54 25.9722 -80.5106 331° Northwest 328 607 10.000 750 Climbing Miami Center
Fri 15:45:54 26.0414 -80.5819 317° Northwest 372 689 9.900 -50 Descending Miami Center
Fri 15:46:54 26.1125 -80.6514 319° Northwest 386 715 9.900 50 Level Miami Center
Fri 15:47:54 26.1900 -80.7300 318° Northwest 386 715 10.000 50 Climbing Miami Center
Fri 15:48:54 26.2689 -80.8208 314° West 376 697 10.000  Level Miami Center
Fri 15:49:54 26.3419 -80.9042 314° West 371 687 10.000  Level Miami Center
Fri 15:50:54 26.3511 -81.0206 275° West 360 666 10.000  Level Miami Center
Fri 15:51:54 26.3542 -81.1342 272° West 366 678 10.000 -200 Level Miami Center
Fri 15:52:54 26.3511 -81.2314 268° West 343 636 9.600 -750 Descending Miami Center
Fri 15:53:54 26.3508 -81.3100 270° West 284 526 8.500 -1.850 Descending Miami Center
Fri 15:54:54 26.3483 -81.3933 268° West 268 496 5.900 -2.550 Descending Miami Center
Fri 15:55:54 26.3458 -81.4767 268° West 268 496 3.400 -1.450 Descending Miami Center
Fri 15:56:54 26.3475 -81.5556 271° West 268 496 3.000 -450 Descending Miami Center
Fri 15:57:54 26.3181 -81.6217 244° Southwest 246 455 2.500 -450 Descending Miami Center
Fri 15:58:54 26.2689 -81.6567 213° Southwest 230 426 2.100 -200 Descending Miami Center
Fri 15:59:54 26.2258 -81.6989 221° Southwest 216 401 2.100 -500 Level Miami Center
Fri 16:00:54 26.1869 -81.7392 223° Southwest 204 378 1.100 -1.000 Descending Miami Center
Fri 16:02:00 26.1500 -81.7667 241° Southwest  Level FlightAware Approximate
Fri 16:09:00 26.1524 -81.7756 241° Southwest  Level Estimated

Login

Don't have an account? Register now (free) for customized features, flight alerts, and more!